createdAt,value
2022-11-12T00:01:02.716Z,13.88
2022-11-12T00:03:29.720Z,12.80
2022-11-12T00:05:56.750Z,12.73
2022-11-12T00:08:24.158Z,13.50
2022-11-12T00:10:51.416Z,13.05
2022-11-12T00:13:18.666Z,14.18
2022-11-12T00:15:47.221Z,13.18
2022-11-12T00:18:14.374Z,12.88
2022-11-12T00:20:41.520Z,12.32
2022-11-12T00:23:08.830Z,13.13
2022-11-12T00:25:35.892Z,12.02
2022-11-12T00:28:04.953Z,12.98
2022-11-12T00:30:32.108Z,12.88
2022-11-12T00:33:02.611Z,12.10
2022-11-12T00:35:32.087Z,11.82
2022-11-12T00:37:59.279Z,12.23
2022-11-12T00:40:26.810Z,11.73
2022-11-12T00:42:54.107Z,11.90
2022-11-12T00:45:21.264Z,12.32
2022-11-12T00:47:48.700Z,13.38
2022-11-12T00:50:16.448Z,12.90
2022-11-12T00:52:43.821Z,12.68
2022-11-12T00:55:11.319Z,13.70
2022-11-12T00:57:38.367Z,12.40
2022-11-12T01:00:06.706Z,15.30
2022-11-12T01:02:40.659Z,14.50
2022-11-12T01:05:10.367Z,14.38
2022-11-12T01:07:37.434Z,13.95
2022-11-12T01:10:05.517Z,16.23
2022-11-12T01:12:32.534Z,15.45
2022-11-12T01:14:59.913Z,14.30
2022-11-12T01:17:27.034Z,15.73
2022-11-12T01:19:54.029Z,15.27
2022-11-12T01:22:21.036Z,15.25
2022-11-12T01:24:48.022Z,16.42
2022-11-12T01:27:15.052Z,16.90
2022-11-12T01:29:42.120Z,16.35
2022-11-12T01:32:09.154Z,15.88
2022-11-12T01:34:36.539Z,16.70
2022-11-12T01:37:03.562Z,15.88
2022-11-12T01:39:30.578Z,17.20
2022-11-12T01:41:57.566Z,17.05
2022-11-12T01:44:29.311Z,16.67
2022-11-12T01:47:02.611Z,17.65
2022-11-12T01:49:56.301Z,18.50
2022-11-12T01:52:35.369Z,16.92
2022-11-12T01:55:08.003Z,17.05
2022-11-12T01:57:41.573Z,18.95
2022-11-12T02:00:11.538Z,16.85
2022-11-12T02:02:39.570Z,17.05
2022-11-12T02:05:10.318Z,17.08
2022-11-12T02:07:40.770Z,17.90
2022-11-12T02:10:10.091Z,18.45
2022-11-12T02:12:56.783Z,18.88
2022-11-12T02:15:23.829Z,18.30
2022-11-12T02:17:51.079Z,17.25
2022-11-12T02:20:18.741Z,16.88
2022-11-12T02:22:45.948Z,17.70
2022-11-12T02:25:17.586Z,17.23
2022-11-12T02:27:45.189Z,16.73
2022-11-12T02:30:12.628Z,16.30
2022-11-12T02:32:40.103Z,17.58
2022-11-12T02:35:07.515Z,16.52
2022-11-12T02:37:34.536Z,17.38
2022-11-12T02:40:01.617Z,17.63
2022-11-12T02:42:28.622Z,15.32
2022-11-12T02:44:55.676Z,15.75
2022-11-12T02:47:22.668Z,14.45
2022-11-12T02:49:49.689Z,16.05
2022-11-12T02:52:16.714Z,14.93
2022-11-12T02:54:43.769Z,15.68
2022-11-12T02:57:10.867Z,15.75
2022-11-12T02:59:37.883Z,16.10
2022-11-12T03:02:04.967Z,16.42
2022-11-12T03:04:32.111Z,14.75
2022-11-12T03:06:59.258Z,15.45
2022-11-12T03:09:26.305Z,15.07
2022-11-12T03:11:53.339Z,16.02
2022-11-12T03:14:20.380Z,15.63
2022-11-12T03:16:47.451Z,16.80
2022-11-12T03:19:14.470Z,16.20
2022-11-12T03:21:41.501Z,17.27
2022-11-12T03:24:08.506Z,16.92
2022-11-12T03:26:36.183Z,17.33
2022-11-12T03:29:03.460Z,16.67
2022-11-12T03:31:30.467Z,16.25
2022-11-12T03:33:57.475Z,17.30
2022-11-12T03:36:24.575Z,16.83
2022-11-12T03:38:51.645Z,17.58
2022-11-12T03:41:18.644Z,16.20
2022-11-12T03:43:45.798Z,15.38
2022-11-12T03:46:13.406Z,15.15
2022-11-12T03:48:40.448Z,15.13
2022-11-12T03:51:07.456Z,14.27
2022-11-12T03:53:34.512Z,15.18
2022-11-12T03:56:01.573Z,14.98
2022-11-12T03:58:28.855Z,14.88
2022-11-12T04:00:56.134Z,13.52
2022-11-12T04:03:23.208Z,14.75
2022-11-12T04:06:09.298Z,14.55
2022-11-12T04:08:36.632Z,13.30
2022-11-12T04:11:05.218Z,15.52
2022-11-12T04:13:32.406Z,13.88
2022-11-12T04:16:20.781Z,13.45
2022-11-12T04:19:09.244Z,13.60
2022-11-12T04:21:55.827Z,14.15
2022-11-12T04:24:56.665Z,14.20
2022-11-12T04:27:29.415Z,14.90
2022-11-12T04:30:15.778Z,15.50
2022-11-12T04:32:51.161Z,14.80
2022-11-12T04:35:19.213Z,15.02
2022-11-12T04:37:47.467Z,14.80
2022-11-12T04:40:34.483Z,14.82
2022-11-12T04:43:21.318Z,13.95
2022-11-12T04:45:51.209Z,14.40
2022-11-12T04:48:19.143Z,14.32
2022-11-12T04:50:49.712Z,14.20
2022-11-12T04:53:16.968Z,17.08
2022-11-12T04:55:43.996Z,14.98
2022-11-12T04:58:12.037Z,14.75
2022-11-12T05:00:39.328Z,16.02
2022-11-12T05:03:06.655Z,15.70
2022-11-12T05:05:34.333Z,15.10
2022-11-12T05:08:02.225Z,14.23
2022-11-12T05:10:30.176Z,14.40
2022-11-12T05:12:57.266Z,14.35
2022-11-12T05:15:24.827Z,14.95
2022-11-12T05:17:52.040Z,15.57
2022-11-12T05:20:19.160Z,15.13
2022-11-12T05:23:04.474Z,15.07
2022-11-12T05:25:33.432Z,15.13
2022-11-12T05:28:00.475Z,15.07
2022-11-12T05:30:27.547Z,14.93
2022-11-12T05:32:54.566Z,15.27
2022-11-12T05:35:21.569Z,15.63
2022-11-12T05:37:48.714Z,14.77
2022-11-12T05:40:15.909Z,15.65
2022-11-12T05:42:44.326Z,15.52
2022-11-12T05:45:11.395Z,15.05
2022-11-12T05:47:40.733Z,16.60
2022-11-12T05:50:08.366Z,15.80
2022-11-12T05:52:35.734Z,16.73
2022-11-12T05:55:02.772Z,16.75
2022-11-12T05:57:29.803Z,15.98
2022-11-12T05:59:56.981Z,14.57
2022-11-12T06:02:24.229Z,17.13
2022-11-12T06:04:51.340Z,14.77
2022-11-12T06:07:18.670Z,15.70
2022-11-12T06:09:45.792Z,15.88
2022-11-12T06:12:12.810Z,15.48
2022-11-12T06:14:40.298Z,16.67
2022-11-12T06:17:12.961Z,14.77
2022-11-12T06:19:40.424Z,13.95
2022-11-12T06:22:10.510Z,13.30
2022-11-12T06:24:37.504Z,14.38
2022-11-12T06:27:06.942Z,13.50
2022-11-12T06:29:36.803Z,13.23
2022-11-12T06:32:03.970Z,13.95
2022-11-12T06:34:31.007Z,13.45
2022-11-12T06:36:58.070Z,12.63
2022-11-12T06:39:25.068Z,13.23
2022-11-12T06:41:52.111Z,12.82
2022-11-12T06:44:22.256Z,13.45
2022-11-12T06:46:50.848Z,12.95
2022-11-12T06:49:17.946Z,12.93
2022-11-12T06:51:45.160Z,14.05
2022-11-12T06:54:12.254Z,13.45
2022-11-12T06:56:39.322Z,12.93
2022-11-12T06:59:06.602Z,13.63
2022-11-12T07:01:33.658Z,12.95
2022-11-12T07:04:00.806Z,13.70
2022-11-12T07:06:27.811Z,15.82
2022-11-12T07:08:54.926Z,14.65
2022-11-12T07:11:21.949Z,13.65
2022-11-12T07:13:49.059Z,14.50
2022-11-12T07:16:18.941Z,14.10
2022-11-12T07:18:47.025Z,14.68
2022-11-12T07:21:16.754Z,15.30
2022-11-12T07:23:44.595Z,14.75
2022-11-12T07:26:23.254Z,16.13
2022-11-12T07:28:52.126Z,16.23
2022-11-12T07:31:20.471Z,17.40
2022-11-12T07:33:50.513Z,17.05
2022-11-12T07:36:19.868Z,16.23
2022-11-12T07:38:50.178Z,17.20
2022-11-12T07:41:20.180Z,16.48
2022-11-12T07:43:48.759Z,17.85
2022-11-12T07:46:20.145Z,17.65
2022-11-12T07:48:47.472Z,16.98
2022-11-12T07:51:26.305Z,16.40
2022-11-12T07:53:59.201Z,15.73
2022-11-12T07:56:28.032Z,16.83
2022-11-12T07:58:55.048Z,15.82
2022-11-12T08:01:39.790Z,16.73
2022-11-12T08:04:11.829Z,16.55
2022-11-12T08:06:39.296Z,17.15
2022-11-12T08:09:10.950Z,17.08
2022-11-12T08:11:38.023Z,17.30
2022-11-12T08:14:05.609Z,19.35
2022-11-12T08:16:32.771Z,18.80
2022-11-12T08:19:00.853Z,20.10
2022-11-12T08:21:27.837Z,20.67
2022-11-12T08:23:54.861Z,17.17
2022-11-12T08:26:21.918Z,16.85
2022-11-12T08:28:48.954Z,14.52
2022-11-12T08:31:22.303Z,14.38
2022-11-12T08:33:50.327Z,17.77
2022-11-12T08:36:18.007Z,17.13
2022-11-12T08:38:45.390Z,15.93
2022-11-12T08:41:14.236Z,15.55
2022-11-12T08:43:42.303Z,16.38
2022-11-12T08:46:10.161Z,15.82
2022-11-12T08:48:37.521Z,15.32
2022-11-12T08:51:05.685Z,15.77
2022-11-12T08:53:33.015Z,14.77
2022-11-12T08:56:00.238Z,14.70
2022-11-12T08:58:27.918Z,15.10
2022-11-12T09:00:56.200Z,15.43
2022-11-12T09:03:25.721Z,15.13
2022-11-12T09:05:53.856Z,15.65
2022-11-12T09:08:24.236Z,16.10
2022-11-12T09:10:52.078Z,15.60
2022-11-12T09:13:19.873Z,16.40
2022-11-12T09:15:47.269Z,16.52
2022-11-12T09:18:17.838Z,17.48
2022-11-12T09:20:45.417Z,19.77
2022-11-12T09:23:14.723Z,19.58
2022-11-12T09:25:42.412Z,19.17
2022-11-12T09:28:11.853Z,19.67
2022-11-12T09:30:46.481Z,18.50
2022-11-12T09:33:33.820Z,17.75
2022-11-12T09:36:03.437Z,17.92
2022-11-12T09:38:31.341Z,16.90
2022-11-12T09:41:24.130Z,15.98
2022-11-12T09:43:54.118Z,15.88
2022-11-12T09:46:28.778Z,15.52
2022-11-12T09:49:05.393Z,16.80
2022-11-12T09:51:38.724Z,16.83
2022-11-12T09:54:21.433Z,15.63
2022-11-12T09:56:53.085Z,15.15
2022-11-12T09:59:21.711Z,15.40
2022-11-12T10:02:25.424Z,14.98
2022-11-12T10:05:10.800Z,14.20
2022-11-12T10:08:16.346Z,15.38
2022-11-12T10:10:49.792Z,14.35
2022-11-12T10:13:19.882Z,14.25
2022-11-12T10:16:40.904Z,13.82
2022-11-12T10:19:29.969Z,13.95
2022-11-12T10:21:59.693Z,13.32
2022-11-12T10:24:33.638Z,15.15
2022-11-12T10:27:01.027Z,15.23
2022-11-12T10:30:01.502Z,14.43
2022-11-12T10:32:28.510Z,15.65
2022-11-12T10:34:55.533Z,14.45
2022-11-12T10:37:39.043Z,14.88
2022-11-12T10:40:20.964Z,14.68
2022-11-12T10:43:00.077Z,13.88
2022-11-12T10:45:27.564Z,12.98
2022-11-12T10:47:54.931Z,13.20
2022-11-12T10:50:31.785Z,12.40
2022-11-12T10:53:02.063Z,13.13
2022-11-12T10:55:31.415Z,12.75
2022-11-12T10:58:27.600Z,12.63
2022-11-12T11:01:12.273Z,12.25
2022-11-12T11:03:50.519Z,12.02
2022-11-12T11:06:17.458Z,12.57
2022-11-12T11:08:48.946Z,12.18
2022-11-12T11:11:29.750Z,12.02
2022-11-12T11:14:08.901Z,12.05
2022-11-12T11:16:50.198Z,11.10
2022-11-12T11:19:17.363Z,11.07
2022-11-12T11:21:50.419Z,12.32
2022-11-12T11:24:51.789Z,11.50
2022-11-12T11:28:02.449Z,10.38
2022-11-12T11:30:29.702Z,11.57
2022-11-12T11:33:02.603Z,10.85
2022-11-12T11:35:53.530Z,10.67
2022-11-12T11:38:40.617Z,10.45
2022-11-12T11:41:40.585Z,9.43
2022-11-12T11:44:29.483Z,9.43
2022-11-12T11:47:21.101Z,9.30
2022-11-12T11:50:03.765Z,8.02
2022-11-12T11:52:44.711Z,8.30
2022-11-12T11:55:36.935Z,7.55
2022-11-12T11:58:19.386Z,8.98
2022-11-12T12:01:17.710Z,7.20
2022-11-12T12:04:06.682Z,8.32
2022-11-12T12:07:00.848Z,8.65
2022-11-12T12:09:57.446Z,6.43
2022-11-12T12:12:36.413Z,8.70
2022-11-12T12:15:40.826Z,7.28
2022-11-12T12:18:38.900Z,7.93
2022-11-12T12:21:17.467Z,7.10
2022-11-12T12:23:56.277Z,8.07
2022-11-12T12:26:45.211Z,8.57
2022-11-12T12:29:15.250Z,7.22
2022-11-12T12:31:50.911Z,7.47
2022-11-12T12:34:32.159Z,7.20
2022-11-12T12:37:07.786Z,7.20
2022-11-12T12:39:53.391Z,7.20
2022-11-12T12:42:26.643Z,7.30
2022-11-12T12:45:22.983Z,7.75
2022-11-12T12:47:52.126Z,8.18
2022-11-12T12:50:21.341Z,6.35
2022-11-12T12:53:02.722Z,7.07
2022-11-12T12:55:43.122Z,7.32
2022-11-12T12:58:31.625Z,6.85
2022-11-12T13:01:34.165Z,7.88
2022-11-12T13:04:05.348Z,8.25
2022-11-12T13:06:40.166Z,8.23
2022-11-12T13:09:24.059Z,7.75
2022-11-12T13:12:06.450Z,8.82
2022-11-12T13:14:36.450Z,8.13
2022-11-12T13:17:16.616Z,6.53
2022-11-12T13:19:53.532Z,7.28
2022-11-12T13:22:20.523Z,6.45
2022-11-12T13:25:12.198Z,7.03
2022-11-12T13:27:39.175Z,6.47
2022-11-12T13:30:17.820Z,6.82
2022-11-12T13:32:47.533Z,7.00
2022-11-12T13:35:22.137Z,8.18
2022-11-12T13:38:13.310Z,8.93
2022-11-12T13:40:44.399Z,8.75
2022-11-12T13:43:32.781Z,8.25
2022-11-12T13:46:07.571Z,6.82
2022-11-12T13:48:42.797Z,6.45
2022-11-12T13:51:29.551Z,6.18
2022-11-12T13:53:56.553Z,6.22
2022-11-12T13:56:28.398Z,5.82
2022-11-12T13:59:07.796Z,5.85
2022-11-12T14:01:34.806Z,5.53
2022-11-12T14:04:01.925Z,5.55
2022-11-12T14:06:37.522Z,6.20
2022-11-12T14:09:13.272Z,5.72
2022-11-12T14:12:09.310Z,5.75
2022-11-12T14:15:10.550Z,6.93
2022-11-12T14:17:55.852Z,6.78
2022-11-12T14:20:32.180Z,6.60
2022-11-12T14:23:24.563Z,6.97
2022-11-12T14:25:54.720Z,7.63
2022-11-12T14:28:32.901Z,6.93
2022-11-12T14:31:01.554Z,6.93
2022-11-12T14:33:30.572Z,6.82
2022-11-12T14:36:14.840Z,7.03
2022-11-12T14:38:49.179Z,6.50
2022-11-12T14:41:24.255Z,7.05
2022-11-12T14:44:11.685Z,6.80
2022-11-12T14:46:52.023Z,5.60
2022-11-12T14:49:34.032Z,6.03
2022-11-12T14:52:19.010Z,6.72
2022-11-12T14:54:50.654Z,6.07
2022-11-12T14:57:23.300Z,5.97
2022-11-12T14:59:50.354Z,6.50
2022-11-12T15:02:41.679Z,6.60
2022-11-12T15:05:13.147Z,6.70
2022-11-12T15:07:58.710Z,5.70
2022-11-12T15:10:41.626Z,6.97
2022-11-12T15:13:23.501Z,6.88
2022-11-12T15:15:54.354Z,7.85
2022-11-12T15:18:25.208Z,8.00
2022-11-12T15:21:11.000Z,8.07
2022-11-12T15:23:51.194Z,8.30
2022-11-12T15:26:46.565Z,8.32
2022-11-12T15:29:24.447Z,8.73
2022-11-12T15:31:55.013Z,9.43
2022-11-12T15:34:40.142Z,8.55
2022-11-12T15:37:19.109Z,8.73
2022-11-12T15:39:59.019Z,8.00
2022-11-12T15:42:33.872Z,7.55
2022-11-12T15:45:03.660Z,7.32
2022-11-12T15:47:30.855Z,7.20
2022-11-12T15:49:59.086Z,8.63
2022-11-12T15:52:26.504Z,8.48
2022-11-12T15:54:53.657Z,12.45
2022-11-12T15:57:24.726Z,9.02
2022-11-12T16:00:07.891Z,7.45
2022-11-12T16:02:35.530Z,7.75
2022-11-12T16:05:02.685Z,7.03
2022-11-12T16:07:29.726Z,7.82
2022-11-12T16:09:56.809Z,7.68
2022-11-12T16:12:24.201Z,7.13
2022-11-12T16:14:51.265Z,7.80
2022-11-12T16:17:19.145Z,8.27
2022-11-12T16:19:46.300Z,8.15
2022-11-12T16:22:13.435Z,8.50
2022-11-12T16:24:41.376Z,8.02
2022-11-12T16:27:13.464Z,8.43
2022-11-12T16:29:41.079Z,11.40
2022-11-12T16:32:12.894Z,11.18
2022-11-12T16:34:41.486Z,12.65
2022-11-12T16:37:12.936Z,11.13
2022-11-12T16:39:42.922Z,10.30
2022-11-12T16:42:10.962Z,10.35
2022-11-12T16:44:37.948Z,10.30
2022-11-12T16:47:05.677Z,13.05
2022-11-12T16:49:38.236Z,16.90
2022-11-12T16:52:08.609Z,12.63
2022-11-12T16:54:39.227Z,12.25
2022-11-12T16:57:06.580Z,11.18
2022-11-12T16:59:33.671Z,12.10
2022-11-12T17:02:00.733Z,10.55
2022-11-12T17:04:27.759Z,10.82
2022-11-12T17:06:54.784Z,10.77
2022-11-12T17:09:21.813Z,11.32
2022-11-12T17:11:49.363Z,11.02
2022-11-12T17:14:18.302Z,10.18
2022-11-12T17:16:46.311Z,10.65
2022-11-12T17:19:13.323Z,10.80
2022-11-12T17:21:40.345Z,10.68
2022-11-12T17:24:10.467Z,11.02
2022-11-12T17:26:37.922Z,14.23
2022-11-12T17:29:08.103Z,14.13
2022-11-12T17:31:35.684Z,12.73
2022-11-12T17:34:05.384Z,12.10
2022-11-12T17:36:32.617Z,11.80
2022-11-12T17:39:00.361Z,12.60
2022-11-12T17:41:31.058Z,11.98
2022-11-12T17:43:59.996Z,11.73
2022-11-12T17:46:28.410Z,12.27
2022-11-12T17:48:56.016Z,12.55
2022-11-12T17:51:27.320Z,12.52
2022-11-12T17:53:54.411Z,13.98
2022-11-12T17:56:23.223Z,13.45
2022-11-12T17:58:53.512Z,13.73
2022-11-12T18:01:24.929Z,13.13
2022-11-12T18:03:54.646Z,13.95
2022-11-12T18:06:28.756Z,14.63
2022-11-12T18:09:17.025Z,12.43
2022-11-12T18:11:48.491Z,15.07
2022-11-12T18:14:15.731Z,17.48
2022-11-12T18:16:43.243Z,16.73
2022-11-12T18:19:11.278Z,14.27
2022-11-12T18:21:40.225Z,15.07
2022-11-12T18:24:12.381Z,15.23
2022-11-12T18:26:39.474Z,15.18
2022-11-12T18:29:07.488Z,14.73
2022-11-12T18:31:34.699Z,16.30
2022-11-12T18:34:01.840Z,15.77
2022-11-12T18:36:29.087Z,15.52
2022-11-12T18:38:56.320Z,15.88
2022-11-12T18:41:30.069Z,16.00
2022-11-12T18:46:23.973Z,14.63
2022-11-12T18:48:51.070Z,16.05
2022-11-12T18:51:19.457Z,18.45
2022-11-12T18:53:47.605Z,19.48
2022-11-12T18:56:19.585Z,20.02
2022-11-12T18:58:47.320Z,18.65
2022-11-12T19:01:16.876Z,17.98
2022-11-12T19:03:44.358Z,18.10
2022-11-12T19:06:14.699Z,19.13
2022-11-12T19:08:41.852Z,20.63
2022-11-12T19:11:13.637Z,22.15
2022-11-12T19:13:41.629Z,20.80
2022-11-12T19:16:11.738Z,21.60
2022-11-12T19:18:40.728Z,21.58
2022-11-12T19:21:10.740Z,23.90
2022-11-12T19:23:38.961Z,27.05
2022-11-12T19:26:07.734Z,22.90
2022-11-12T19:28:35.455Z,22.80
2022-11-12T19:31:08.020Z,21.45
2022-11-12T19:33:35.577Z,23.30
2022-11-12T19:36:10.792Z,24.63
2022-11-12T19:38:37.876Z,29.52
2022-11-12T19:41:05.740Z,31.20
2022-11-12T19:43:33.460Z,30.50
2022-11-12T19:46:01.266Z,30.60
2022-11-12T19:48:28.699Z,33.20
2022-11-12T19:51:00.150Z,33.60
2022-11-12T19:53:44.729Z,32.17
2022-11-12T19:56:14.155Z,31.23
2022-11-12T19:58:45.224Z,31.42
2022-11-12T20:01:14.731Z,29.55
2022-11-12T20:03:42.214Z,29.58
2022-11-12T20:06:20.389Z,40.28
2022-11-12T20:08:47.521Z,46.78
2022-11-12T20:11:16.195Z,37.33
2022-11-12T20:13:43.228Z,33.10
2022-11-12T20:16:22.247Z,31.55
2022-11-12T20:18:55.753Z,28.23
2022-11-12T20:21:24.053Z,25.77
2022-11-12T20:23:51.061Z,25.00
2022-11-12T20:26:18.155Z,25.73
2022-11-12T20:28:45.278Z,26.00
2022-11-12T20:31:14.804Z,26.08
2022-11-12T20:33:42.798Z,26.42
2022-11-12T20:36:15.377Z,27.73
2022-11-12T20:38:44.177Z,26.73
2022-11-12T20:41:14.547Z,29.02
2022-11-12T20:43:41.946Z,29.90
2022-11-12T20:46:11.016Z,32.47
2022-11-12T20:48:43.155Z,38.95
2022-11-12T20:51:25.282Z,43.70
2022-11-12T20:54:00.087Z,39.97
2022-11-12T20:56:30.256Z,36.55
2022-11-12T20:58:58.435Z,37.30
2022-11-12T21:01:27.125Z,37.25
2022-11-12T21:03:54.400Z,36.85
2022-11-12T21:06:23.771Z,34.17
2022-11-12T21:08:50.843Z,32.03
2022-11-12T21:11:20.602Z,26.23
2022-11-12T21:13:47.751Z,27.45
2022-11-12T21:16:14.899Z,28.90
2022-11-12T21:18:42.701Z,27.92
2022-11-12T21:21:10.940Z,26.50
2022-11-12T21:23:41.138Z,28.27
2022-11-12T21:26:17.229Z,27.27
2022-11-12T21:28:54.975Z,27.00
2022-11-12T21:31:24.355Z,26.35
2022-11-12T21:34:04.188Z,25.58
2022-11-12T21:36:34.040Z,22.00
2022-11-12T21:39:02.417Z,22.55
2022-11-12T21:41:31.895Z,23.17
2022-11-12T21:43:59.061Z,21.48
2022-11-12T21:46:29.239Z,22.00
2022-11-12T21:48:56.859Z,24.55
2022-11-12T21:51:29.018Z,22.40
2022-11-12T21:53:58.175Z,22.00
2022-11-12T21:56:25.819Z,25.33
2022-11-12T21:58:54.369Z,27.17
2022-11-12T22:01:25.080Z,28.92
2022-11-12T22:03:53.940Z,24.83
2022-11-12T22:06:23.804Z,27.23
2022-11-12T22:08:52.912Z,27.42
2022-11-12T22:11:21.037Z,26.42
2022-11-12T22:13:48.174Z,25.00
2022-11-12T22:16:18.401Z,24.80
2022-11-12T22:18:47.612Z,25.05
2022-11-12T22:21:39.724Z,24.70
2022-11-12T22:24:09.927Z,24.23
2022-11-12T22:26:36.964Z,23.35
2022-11-12T22:29:04.375Z,25.17
2022-11-12T22:31:32.734Z,23.00
2022-11-12T22:34:02.162Z,23.02
2022-11-12T22:36:31.150Z,22.48
2022-11-12T22:38:58.625Z,20.52
2022-11-12T22:41:28.629Z,21.45
2022-11-12T22:43:58.131Z,22.35
2022-11-12T22:46:27.764Z,25.63
2022-11-12T22:48:55.588Z,25.05
2022-11-12T22:51:25.584Z,28.10
2022-11-12T22:53:54.794Z,28.80
2022-11-12T22:56:22.510Z,25.88
2022-11-12T22:58:52.742Z,24.15
2022-11-12T23:01:27.558Z,24.00
2022-11-12T23:03:57.164Z,26.80
2022-11-12T23:06:25.305Z,31.13
2022-11-12T23:08:56.550Z,28.02
2022-11-12T23:11:26.106Z,29.02
2022-11-12T23:13:54.674Z,27.20
2022-11-12T23:16:27.498Z,27.55
2022-11-12T23:18:54.969Z,23.07
2022-11-12T23:21:24.442Z,22.92
2022-11-12T23:23:51.790Z,19.15
2022-11-12T23:26:22.771Z,19.05
2022-11-12T23:28:53.040Z,18.58
2022-11-12T23:31:23.335Z,19.02
2022-11-12T23:33:52.770Z,16.90
2022-11-12T23:36:21.084Z,19.00
2022-11-12T23:38:48.390Z,18.40
2022-11-12T23:41:18.941Z,18.40
2022-11-12T23:43:45.983Z,18.98
2022-11-12T23:46:13.208Z,21.00
2022-11-12T23:48:41.018Z,18.67
2022-11-12T23:51:11.728Z,17.73
2022-11-12T23:53:39.247Z,17.17
2022-11-12T23:56:12.879Z,17.92
2022-11-12T23:58:41.274Z,17.55
